createdAt,value
2018-09-01T00:00:13.351Z,102312.05
2018-09-01T00:02:41.636Z,102313.36
2018-09-01T00:05:09.969Z,102311.69
2018-09-01T00:07:38.256Z,102319.24
2018-09-01T00:10:06.574Z,102322.63
2018-09-01T00:12:34.917Z,102326.11
2018-09-01T00:15:03.198Z,102328.50
2018-09-01T00:17:31.989Z,102324.29
2018-09-01T00:20:01.637Z,102325.63
2018-09-01T00:22:30.367Z,102323.69
2018-09-01T00:24:58.746Z,102330.39
2018-09-01T00:27:27.117Z,102327.04
2018-09-01T00:29:55.405Z,102321.89
2018-09-01T00:32:23.685Z,102320.70
2018-09-01T00:34:52.413Z,102321.14
2018-09-01T00:37:25.993Z,102323.78
2018-09-01T00:39:54.246Z,102323.91
2018-09-01T00:42:22.631Z,102326.66
2018-09-01T00:44:50.913Z,102328.45
2018-09-01T00:47:19.225Z,102329.06
2018-09-01T00:49:48.602Z,102338.05
2018-09-01T00:52:16.855Z,102334.80
2018-09-01T00:54:45.812Z,102335.63
2018-09-01T00:57:15.146Z,102333.11
2018-09-01T00:59:43.413Z,102338.98
2018-09-01T01:02:11.690Z,102337.69
2018-09-01T01:04:40.094Z,102338.63
2018-09-01T01:07:08.435Z,102340.83
2018-09-01T01:09:37.829Z,102333.60
2018-09-01T01:12:06.125Z,102337.61
2018-09-01T01:14:34.447Z,102338.48
2018-09-01T01:17:02.780Z,102344.47
2018-09-01T01:19:31.077Z,102337.25
2018-09-01T01:21:59.368Z,102341.22
2018-09-01T01:24:27.610Z,102340.64
2018-09-01T01:26:56.461Z,102342.63
2018-09-01T01:29:26.032Z,102344.45
2018-09-01T01:31:54.534Z,102341.95
2018-09-01T01:34:23.193Z,102339.66
2018-09-01T01:36:51.489Z,102347.59
2018-09-01T01:39:19.729Z,102344.59
2018-09-01T01:41:49.000Z,102343.11
2018-09-01T01:44:18.303Z,102350.80
2018-09-01T01:46:46.601Z,102348.90
2018-09-01T01:49:14.837Z,102347.47
2018-09-01T01:51:43.130Z,102346.25
2018-09-01T01:54:12.554Z,102348.18
2018-09-01T01:56:40.805Z,102349.50
2018-09-01T01:59:09.091Z,102348.66
2018-09-01T02:01:37.356Z,102358.14
2018-09-01T02:04:06.717Z,102357.53
2018-09-01T02:06:34.956Z,102353.91
2018-09-01T02:09:04.206Z,102355.58
2018-09-01T02:11:32.613Z,102348.17
2018-09-01T02:14:01.945Z,102356.66
2018-09-01T02:16:30.185Z,102363.98
2018-09-01T02:18:58.460Z,102355.11
2018-09-01T02:21:26.712Z,102366.14
2018-09-01T02:23:54.986Z,102366.48
2018-09-01T02:26:23.307Z,102369.98
2018-09-01T02:28:51.581Z,102374.14
2018-09-01T02:31:19.945Z,102374.58
2018-09-01T02:33:48.227Z,102375.77
2018-09-01T02:36:16.478Z,102371.25
2018-09-01T02:38:44.752Z,102379.27
2018-09-01T02:41:13.029Z,102382.63
2018-09-01T02:43:42.425Z,102383.38
2018-09-01T02:46:10.692Z,102391.77
2018-09-01T02:48:40.066Z,102393.58
2018-09-01T02:51:08.353Z,102392.97
2018-09-01T02:53:36.604Z,102391.41
2018-09-01T02:56:05.162Z,102394.98
2018-09-01T02:58:33.445Z,102394.05
2018-09-01T03:01:06.982Z,102390.25
2018-09-01T03:03:35.237Z,102400.64
2018-09-01T03:06:04.661Z,102405.52
2018-09-01T03:08:32.929Z,102407.40
2018-09-01T03:11:01.256Z,102406.23
2018-09-01T03:13:30.729Z,102404.64
2018-09-01T03:15:59.341Z,102401.05
2018-09-01T03:18:27.609Z,102398.41
2018-09-01T03:20:55.909Z,102405.36
2018-09-01T03:23:24.161Z,102401.69
2018-09-01T03:25:52.469Z,102402.82
2018-09-01T03:28:21.823Z,102401.94
2018-09-01T03:30:50.103Z,102407.33
2018-09-01T03:33:18.422Z,102398.70
2018-09-01T03:35:46.708Z,102399.55
2018-09-01T03:38:15.027Z,102399.50
2018-09-01T03:40:44.467Z,102397.11
2018-09-01T03:43:12.758Z,102393.83
2018-09-01T03:45:41.004Z,102394.02
2018-09-01T03:48:09.330Z,102391.19
2018-09-01T03:50:37.590Z,102396.64
2018-09-01T03:53:05.925Z,102400.78
2018-09-01T03:55:34.217Z,102405.30
2018-09-01T03:58:02.825Z,102407.98
2018-09-01T04:00:31.136Z,102413.12
2018-09-01T04:02:59.429Z,102414.38
2018-09-01T04:05:28.801Z,102413.86
2018-09-01T04:07:57.105Z,102422.06
2018-09-01T04:10:25.400Z,102422.81
2018-09-01T04:12:53.744Z,102423.08
2018-09-01T04:15:23.035Z,102428.86
2018-09-01T04:17:51.329Z,102428.12
2018-09-01T04:20:19.617Z,102426.85
2018-09-01T04:22:47.922Z,102433.23
2018-09-01T04:25:16.225Z,102432.65
2018-09-01T04:27:44.533Z,102431.16
2018-09-01T04:30:12.887Z,102431.41
2018-09-01T04:32:42.228Z,102434.42
2018-09-01T04:35:10.569Z,102436.55
2018-09-01T04:37:38.869Z,102430.45
2018-09-01T04:40:07.192Z,102436.89
2018-09-01T04:42:35.469Z,102431.49
2018-09-01T04:45:03.793Z,102436.90
2018-09-01T04:47:32.069Z,102436.78
2018-09-01T04:50:00.389Z,102440.59
2018-09-01T04:52:28.677Z,102438.69
2018-09-01T04:54:57.026Z,102433.66
2018-09-01T04:57:25.361Z,102443.19
2018-09-01T04:59:53.679Z,102447.30
2018-09-01T05:02:21.945Z,102443.16
2018-09-01T05:04:50.247Z,102445.56
2018-09-01T05:07:18.533Z,102451.35
2018-09-01T05:09:46.874Z,102449.24
2018-09-01T05:12:15.853Z,102450.16
2018-09-01T05:14:44.223Z,102448.39
2018-09-01T05:17:12.596Z,102455.36
2018-09-01T05:19:40.938Z,102454.59
2018-09-01T05:22:09.233Z,102457.22
2018-09-01T05:24:37.538Z,102459.81
2018-09-01T05:27:06.157Z,102466.69
2018-09-01T05:29:34.509Z,102463.39
2018-09-01T05:32:02.830Z,102472.03
2018-09-01T05:34:32.153Z,102468.61
2018-09-01T05:37:00.455Z,102475.20
2018-09-01T05:39:28.827Z,102479.28
2018-09-01T05:41:57.145Z,102477.66
2018-09-01T05:44:26.513Z,102477.92
2018-09-01T05:46:54.881Z,102479.59
2018-09-01T05:49:23.241Z,102486.56
2018-09-01T05:51:51.567Z,102479.70
2018-09-01T05:54:19.906Z,102479.64
2018-09-01T05:56:48.199Z,102487.11
2018-09-01T05:59:16.537Z,102486.43
2018-09-01T06:01:44.959Z,102487.41
2018-09-01T06:04:13.236Z,102485.41
2018-09-01T06:06:41.553Z,102482.55
2018-09-01T06:09:10.439Z,102483.64
2018-09-01T06:11:39.846Z,102485.69
2018-09-01T06:14:08.705Z,102492.85
2018-09-01T06:16:37.405Z,102485.95
2018-09-01T06:19:05.692Z,102494.11
2018-09-01T06:21:34.265Z,102496.01
2018-09-01T06:24:02.736Z,102499.23
2018-09-01T06:26:30.908Z,102499.46
2018-09-01T06:29:16.260Z,102503.38
2018-09-01T06:31:50.069Z,102504.45
2018-09-01T06:34:18.376Z,102502.25
2018-09-01T06:36:46.754Z,102506.77
2018-09-01T06:39:15.066Z,102513.86
2018-09-01T06:41:43.365Z,102511.67
2018-09-01T06:44:11.757Z,102513.25
2018-09-01T06:46:40.051Z,102519.89
2018-09-01T06:49:08.352Z,102523.96
2018-09-01T06:51:37.074Z,102528.38
2018-09-01T06:54:06.465Z,102524.97
2018-09-01T06:56:34.860Z,102531.04
2018-09-01T06:59:03.162Z,102538.47
2018-09-01T07:01:32.553Z,102540.11
2018-09-01T07:04:00.854Z,102547.09
2018-09-01T07:06:29.168Z,102552.39
2018-09-01T07:08:57.473Z,102555.95
2018-09-01T07:11:25.876Z,102557.11
2018-09-01T07:13:54.167Z,102555.55
2018-09-01T07:16:22.498Z,102557.58
2018-09-01T07:18:50.801Z,102563.80
2018-09-01T07:21:19.146Z,102567.98
2018-09-01T07:23:47.437Z,102572.27
2018-09-01T07:26:15.713Z,102574.12
2018-09-01T07:28:44.013Z,102569.48
2018-09-01T07:31:12.583Z,102571.69
2018-09-01T07:33:40.629Z,102580.51
2018-09-01T07:36:12.365Z,102583.72
2018-09-01T07:38:40.663Z,102579.05
2018-09-01T07:41:08.936Z,102577.66
2018-09-01T07:43:37.233Z,102589.77
2018-09-01T07:46:05.504Z,102587.60
2018-09-01T07:48:33.885Z,102591.09
2018-09-01T07:51:02.295Z,102585.52
2018-09-01T07:53:30.614Z,102585.13
2018-09-01T07:56:00.115Z,102584.74
2018-09-01T07:58:28.309Z,102584.03
2018-09-01T08:00:57.669Z,102585.64
2018-09-01T08:03:27.107Z,102596.48
2018-09-01T08:05:55.456Z,102599.42
2018-09-01T08:08:23.733Z,102602.09
2018-09-01T08:10:52.081Z,102600.59
2018-09-01T08:13:20.361Z,102597.61
2018-09-01T08:15:49.838Z,102611.24
2018-09-01T08:18:19.397Z,102610.25
2018-09-01T08:20:47.821Z,102618.80
2018-09-01T08:23:16.140Z,102615.56
2018-09-01T08:25:45.571Z,102624.02
2018-09-01T08:28:14.917Z,102630.45
2018-09-01T08:30:43.212Z,102630.41
2018-09-01T08:33:11.537Z,102633.89
2018-09-01T08:35:39.977Z,102635.95
2018-09-01T08:38:08.254Z,102636.11
2018-09-01T08:40:36.534Z,102635.77
2018-09-01T08:43:05.173Z,102641.91
2018-09-01T08:45:33.449Z,102640.17
2018-09-01T08:48:01.720Z,102629.56
2018-09-01T08:50:30.129Z,102632.34
2018-09-01T08:52:58.457Z,102632.88
2018-09-01T08:55:26.761Z,102635.73
2018-09-01T08:57:55.137Z,102643.41
2018-09-01T09:00:23.403Z,102639.67
2018-09-01T09:02:51.693Z,102637.82
2018-09-01T09:05:19.945Z,102641.78
2018-09-01T09:07:48.393Z,102645.78
2018-09-01T09:10:17.738Z,102642.84
2018-09-01T09:12:46.033Z,102648.58
2018-09-01T09:15:14.377Z,102658.80
2018-09-01T09:17:42.801Z,102660.17
2018-09-01T09:20:12.062Z,102663.73
2018-09-01T09:22:40.337Z,102665.06
2018-09-01T09:25:08.729Z,102673.94
2018-09-01T09:27:36.985Z,102666.42
2018-09-01T09:30:05.607Z,102663.07
2018-09-01T09:32:33.893Z,102675.31
2018-09-01T09:35:02.249Z,102668.04
2018-09-01T09:37:30.516Z,102677.48
2018-09-01T09:39:58.898Z,102680.86
2018-09-01T09:42:27.169Z,102682.95
2018-09-01T09:44:55.572Z,102682.81
2018-09-01T09:47:24.045Z,102681.41
2018-09-01T09:49:52.384Z,102672.02
2018-09-01T09:52:20.772Z,102666.44
2018-09-01T09:54:49.203Z,102658.72
2018-09-01T09:57:17.562Z,102661.05
2018-09-01T09:59:45.857Z,102663.02
2018-09-01T10:02:14.141Z,102662.25
2018-09-01T10:04:42.441Z,102658.28
2018-09-01T10:07:10.745Z,102664.06
2018-09-01T10:09:39.137Z,102667.90
2018-09-01T10:12:07.405Z,102669.56
2018-09-01T10:14:35.671Z,102670.58
2018-09-01T10:17:03.965Z,102667.31
2018-09-01T10:19:32.244Z,102661.30
2018-09-01T10:22:00.541Z,102660.67
2018-09-01T10:24:28.809Z,102656.96
2018-09-01T10:26:58.284Z,102659.02
2018-09-01T10:29:26.484Z,102657.09
2018-09-01T10:31:54.776Z,102659.89
2018-09-01T10:34:23.049Z,102664.37
2018-09-01T10:36:51.344Z,102657.16
2018-09-01T10:39:19.601Z,102662.39
2018-09-01T10:41:47.934Z,102665.68
2018-09-01T10:44:16.254Z,102673.51
2018-09-01T10:46:44.578Z,102667.77
2018-09-01T10:49:12.861Z,102668.50
2018-09-01T10:51:42.204Z,102675.45
2018-09-01T10:54:10.538Z,102671.31
2018-09-01T10:56:38.830Z,102663.83
2018-09-01T10:59:07.294Z,102665.80
2018-09-01T11:01:35.441Z,102666.68
2018-09-01T11:04:03.710Z,102675.80
2018-09-01T11:06:31.997Z,102672.89
2018-09-01T11:09:00.260Z,102665.89
2018-09-01T11:11:28.545Z,102664.89
2018-09-01T11:13:56.821Z,102658.02
2018-09-01T11:16:25.129Z,102662.33
2018-09-01T11:18:53.393Z,102657.31
2018-09-01T11:21:21.643Z,102656.56
2018-09-01T11:23:49.952Z,102654.77
2018-09-01T11:26:18.246Z,102662.84
2018-09-01T11:28:46.550Z,102661.22
2018-09-01T11:31:14.842Z,102666.28
2018-09-01T11:33:43.172Z,102677.39
2018-09-01T11:36:11.453Z,102675.26
2018-09-01T11:38:39.776Z,102677.60
2018-09-01T11:41:08.235Z,102685.97
2018-09-01T11:43:36.561Z,102676.45
2018-09-01T11:46:06.068Z,102676.81
2018-09-01T11:48:34.726Z,102676.66
2018-09-01T11:51:02.997Z,102675.43
2018-09-01T11:53:31.350Z,102673.89
2018-09-01T11:55:59.681Z,102680.42
2018-09-01T11:58:28.015Z,102675.62
2018-09-01T12:00:57.459Z,102668.06
2018-09-01T12:03:26.818Z,102676.65
2018-09-01T12:05:56.160Z,102674.61
2018-09-01T12:08:25.570Z,102673.30
2018-09-01T12:10:54.157Z,102668.92
2018-09-01T12:13:23.510Z,102672.89
2018-09-01T12:15:51.792Z,102670.78
2018-09-01T12:18:20.058Z,102665.65
2018-09-01T12:20:50.348Z,102665.09
2018-09-01T12:23:18.614Z,102669.55
2018-09-01T12:25:47.966Z,102669.73
2018-09-01T12:28:16.281Z,102665.97
2018-09-01T12:30:45.705Z,102665.17
2018-09-01T12:33:14.065Z,102663.01
2018-09-01T12:35:42.376Z,102665.65
2018-09-01T12:38:10.658Z,102663.25
2018-09-01T12:40:39.391Z,102658.23
2018-09-01T12:43:08.997Z,102657.44
2018-09-01T12:45:40.849Z,102655.59
2018-09-01T12:48:09.149Z,102668.19
2018-09-01T12:50:39.562Z,102669.25
2018-09-01T12:53:07.906Z,102657.79
2018-09-01T12:55:38.213Z,102651.73
2018-09-01T12:58:06.533Z,102648.83
2018-09-01T13:00:34.818Z,102652.56
2018-09-01T13:03:03.285Z,102653.16
2018-09-01T13:05:31.724Z,102645.17
2018-09-01T13:08:00.158Z,102651.14
2018-09-01T13:10:28.433Z,102639.82
2018-09-01T13:12:58.877Z,102646.25
2018-09-01T13:15:27.181Z,102655.97
2018-09-01T13:17:55.517Z,102647.02
2018-09-01T13:20:23.785Z,102653.45
2018-09-01T13:22:52.114Z,102654.57
2018-09-01T13:25:20.477Z,102651.72
2018-09-01T13:27:48.807Z,102646.48
2018-09-01T13:30:17.161Z,102642.84
2018-09-01T13:32:45.485Z,102650.52
2018-09-01T13:35:14.888Z,102648.88
2018-09-01T13:37:45.201Z,102655.48
2018-09-01T13:40:18.141Z,102660.86
2018-09-01T13:42:46.390Z,102667.94
2018-09-01T13:45:14.681Z,102665.95
2018-09-01T13:47:42.985Z,102664.27
2018-09-01T13:50:11.351Z,102673.73
2018-09-01T13:52:39.701Z,102678.98
2018-09-01T13:55:07.997Z,102671.45
2018-09-01T13:57:36.254Z,102672.45
2018-09-01T14:00:04.595Z,102678.48
2018-09-01T14:02:32.894Z,102673.98
2018-09-01T14:05:01.182Z,102671.44
2018-09-01T14:07:29.449Z,102675.58
2018-09-01T14:09:58.461Z,102674.55
2018-09-01T14:12:26.770Z,102668.13
2018-09-01T14:14:55.178Z,102673.15
2018-09-01T14:17:23.398Z,102675.02
2018-09-01T14:19:51.701Z,102674.05
2018-09-01T14:22:19.994Z,102679.20
2018-09-01T14:24:48.363Z,102671.19
2018-09-01T14:27:16.646Z,102671.24
2018-09-01T14:29:45.538Z,102674.44
2018-09-01T14:32:13.806Z,102682.66
2018-09-01T14:34:42.124Z,102679.31
2018-09-01T14:37:10.479Z,102678.61
2018-09-01T14:39:39.859Z,102683.38
2018-09-01T14:42:08.142Z,102690.99
2018-09-01T14:44:36.472Z,102680.27
2018-09-01T14:47:05.870Z,102683.09
2018-09-01T14:49:34.162Z,102673.59
2018-09-01T14:52:02.473Z,102685.52
2018-09-01T14:54:31.948Z,102685.95
2018-09-01T14:57:00.709Z,102687.84
2018-09-01T14:59:28.974Z,102684.64
2018-09-01T15:01:57.267Z,102677.90
2018-09-01T15:04:25.561Z,102680.48
2018-09-01T15:06:54.461Z,102683.20
2018-09-01T15:09:22.749Z,102681.64
2018-09-01T15:11:51.125Z,102687.28
2018-09-01T15:14:20.525Z,102688.36
2018-09-01T15:16:48.834Z,102680.77
2018-09-01T15:19:17.157Z,102678.25
2018-09-01T15:21:45.477Z,102684.89
2018-09-01T15:24:13.801Z,102688.81
2018-09-01T15:26:42.138Z,102696.84
2018-09-01T15:29:10.473Z,102693.17
2018-09-01T15:31:39.859Z,102695.73
2018-09-01T15:34:09.252Z,102688.28
2018-09-01T15:36:37.617Z,102677.97
2018-09-01T15:39:06.677Z,102680.67
2018-09-01T15:41:35.013Z,102683.80
2018-09-01T15:44:03.545Z,102687.51
2018-09-01T15:46:31.886Z,102691.39
2018-09-01T15:49:00.233Z,102695.88
2018-09-01T15:51:28.506Z,102698.59
2018-09-01T15:53:56.915Z,102695.22
2018-09-01T15:56:25.228Z,102700.05
2018-09-01T15:58:53.533Z,102701.68
2018-09-01T16:01:21.834Z,102703.07
2018-09-01T16:03:50.206Z,102708.88
2018-09-01T16:06:19.445Z,102709.25
2018-09-01T16:08:47.738Z,102711.93
2018-09-01T16:11:19.665Z,102714.14
2018-09-01T16:13:49.033Z,102714.55
2018-09-01T16:16:17.300Z,102719.96
2018-09-01T16:18:45.590Z,102720.98
2018-09-01T16:21:13.942Z,102718.09
2018-09-01T16:23:42.246Z,102719.53
2018-09-01T16:26:10.552Z,102716.70
2018-09-01T16:28:40.085Z,102729.09
2018-09-01T16:31:10.397Z,102723.67
2018-09-01T16:33:38.657Z,102721.36
2018-09-01T16:36:06.979Z,102721.63
2018-09-01T16:38:35.321Z,102723.91
2018-09-01T16:41:03.802Z,102727.17
2018-09-01T16:43:32.077Z,102719.85
2018-09-01T16:46:01.568Z,102712.55
2018-09-01T16:48:29.856Z,102730.09
2018-09-01T16:50:58.181Z,102739.26
2018-09-01T16:53:27.537Z,102733.67
2018-09-01T16:55:55.826Z,102735.20
2018-09-01T16:58:26.137Z,102735.92
2018-09-01T17:00:56.618Z,102734.06
2018-09-01T17:03:24.830Z,102736.88
2018-09-01T17:05:53.154Z,102739.07
2018-09-01T17:08:21.439Z,102736.01
2018-09-01T17:10:50.904Z,102740.44
2018-09-01T17:13:19.187Z,102742.72
2018-09-01T17:15:47.479Z,102740.30
2018-09-01T17:18:16.807Z,102739.39
2018-09-01T17:20:45.157Z,102734.87
2018-09-01T17:23:13.437Z,102744.78
2018-09-01T17:25:41.777Z,102738.13
2018-09-01T17:28:10.058Z,102739.41
2018-09-01T17:30:38.461Z,102743.00
2018-09-01T17:33:06.897Z,102738.09
2018-09-01T17:35:35.509Z,102735.64
2018-09-01T17:38:03.806Z,102741.97
2018-09-01T17:40:32.061Z,102745.80
2018-09-01T17:43:01.629Z,102748.66
2018-09-01T17:45:29.937Z,102748.80
2018-09-01T17:47:58.264Z,102753.64
2018-09-01T17:50:26.561Z,102758.89
2018-09-01T17:52:54.848Z,102756.17
2018-09-01T17:55:23.191Z,102761.19
2018-09-01T17:57:51.622Z,102761.33
2018-09-01T18:00:19.921Z,102761.02
2018-09-01T18:02:48.223Z,102764.70
2018-09-01T18:05:16.509Z,102766.36
2018-09-01T18:07:44.817Z,102772.34
2018-09-01T18:11:38.553Z,102769.34
2018-09-01T18:14:06.913Z,102776.63
2018-09-01T18:16:35.363Z,102782.17
2018-09-01T18:19:03.625Z,102783.39
2018-09-01T18:21:31.926Z,102778.25
2018-09-01T18:24:00.237Z,102779.98
2018-09-01T18:26:28.557Z,102781.80
2018-09-01T18:28:56.858Z,102784.31
2018-09-01T18:31:25.142Z,102790.47
2018-09-01T18:33:53.469Z,102787.38
2018-09-01T18:36:22.810Z,102788.49
2018-09-01T18:38:51.345Z,102792.70
2018-09-01T18:41:19.678Z,102795.89
2018-09-01T18:43:48.940Z,102800.33
2018-09-01T18:46:17.260Z,102806.28
2018-09-01T18:48:45.565Z,102806.73
2018-09-01T18:51:14.015Z,102818.69
2018-09-01T18:53:42.353Z,102816.27
2018-09-01T18:56:10.669Z,102817.48
2018-09-01T18:58:38.990Z,102821.72
2018-09-01T19:01:07.307Z,102827.02
2018-09-01T19:03:36.053Z,102828.92
2018-09-01T19:06:04.610Z,102829.78
2018-09-01T19:08:32.905Z,102826.15
2018-09-01T19:11:01.206Z,102821.22
2018-09-01T19:13:35.357Z,102826.28
2018-09-01T19:16:03.665Z,102825.32
2018-09-01T19:18:31.999Z,102824.11
2018-09-01T19:21:00.604Z,102824.45
2018-09-01T19:23:28.937Z,102823.72
2018-09-01T19:25:57.250Z,102818.19
2018-09-01T19:28:26.581Z,102817.02
2018-09-01T19:30:54.901Z,102824.83
2018-09-01T19:33:23.209Z,102819.52
2018-09-01T19:35:51.704Z,102821.91
2018-09-01T19:38:19.975Z,102822.98
2018-09-01T19:40:48.415Z,102824.02
2018-09-01T19:43:16.813Z,102826.67
2018-09-01T19:45:45.229Z,102818.47
2018-09-01T19:48:13.541Z,102827.48
2018-09-01T19:50:41.915Z,102831.06
2018-09-01T19:53:10.198Z,102829.28
2018-09-01T19:55:38.549Z,102832.53
2018-09-01T19:58:06.854Z,102835.15
2018-09-01T20:00:35.129Z,102835.16
2018-09-01T20:03:03.433Z,102834.13
2018-09-01T20:05:31.964Z,102837.14
2018-09-01T20:08:00.075Z,102833.63
2018-09-01T20:10:28.369Z,102830.61
2018-09-01T20:12:56.689Z,102829.53
2018-09-01T20:15:24.961Z,102826.20
2018-09-01T20:17:53.288Z,102833.98
2018-09-01T20:20:21.681Z,102831.45
2018-09-01T20:22:49.999Z,102834.06
2018-09-01T20:25:18.341Z,102831.91
2018-09-01T20:27:46.595Z,102829.70
2018-09-01T20:30:14.865Z,102843.88
2018-09-01T20:32:43.289Z,102847.16
2018-09-01T20:35:16.993Z,102848.97
2018-09-01T20:37:45.361Z,102848.37
2018-09-01T20:40:13.625Z,102853.66
2018-09-01T20:42:41.961Z,102851.25
2018-09-01T20:45:10.357Z,102849.12
2018-09-01T20:47:39.151Z,102849.40
2018-09-01T20:50:07.502Z,102849.43
2018-09-01T20:52:35.797Z,102846.70
2018-09-01T20:55:04.249Z,102845.16
2018-09-01T20:57:32.842Z,102846.50
2018-09-01T21:00:01.161Z,102850.23
2018-09-01T21:02:29.441Z,102852.16
2018-09-01T21:04:57.832Z,102849.75
2018-09-01T21:07:26.134Z,102852.09
2018-09-01T21:09:54.437Z,102849.83
2018-09-01T21:12:22.737Z,102856.97
2018-09-01T21:14:51.121Z,102862.03
2018-09-01T21:17:19.428Z,102857.47
2018-09-01T21:19:47.726Z,102856.25
2018-09-01T21:22:16.017Z,102865.88
2018-09-01T21:24:44.313Z,102867.20
2018-09-01T21:27:12.615Z,102860.70
2018-09-01T21:29:40.910Z,102870.81
2018-09-01T21:32:09.258Z,102869.74
2018-09-01T21:34:37.589Z,102865.16
2018-09-01T21:37:05.857Z,102863.09
2018-09-01T21:39:34.395Z,102870.08
2018-09-01T21:42:02.766Z,102873.34
2018-09-01T21:44:31.075Z,102871.03
2018-09-01T21:46:59.393Z,102871.78
2018-09-01T21:49:27.799Z,102872.75
2018-09-01T21:51:56.093Z,102875.02
2018-09-01T21:54:24.386Z,102873.22
2018-09-01T21:56:52.844Z,102874.28
2018-09-01T21:59:21.245Z,102883.19
2018-09-01T22:01:54.770Z,102886.63
2018-09-01T22:04:23.193Z,102888.46
2018-09-01T22:06:51.494Z,102886.89
2018-09-01T22:09:19.843Z,102879.94
2018-09-01T22:11:48.130Z,102877.52
2018-09-01T22:14:16.402Z,102878.62
2018-09-01T22:16:44.760Z,102875.61
2018-09-01T22:19:13.056Z,102877.80
2018-09-01T22:21:41.524Z,102881.77
2018-09-01T22:24:09.813Z,102878.05
2018-09-01T22:26:38.095Z,102880.80
2018-09-01T22:29:06.437Z,102875.00
2018-09-01T22:31:34.750Z,102872.00
2018-09-01T22:34:03.099Z,102874.42
2018-09-01T22:36:31.425Z,102878.16
2018-09-01T22:38:59.754Z,102876.47
2018-09-01T22:41:28.061Z,102878.03
2018-09-01T22:43:57.526Z,102886.31
2018-09-01T22:46:26.109Z,102887.36
2018-09-01T22:48:54.406Z,102884.01
2018-09-01T22:51:22.686Z,102888.95
2018-09-01T22:53:51.029Z,102885.84
2018-09-01T22:56:19.373Z,102900.66
2018-09-01T22:58:48.660Z,102887.30
2018-09-01T23:01:16.933Z,102890.45
2018-09-01T23:03:45.289Z,102879.35
2018-09-01T23:06:13.577Z,102883.09
2018-09-01T23:08:42.915Z,102887.67
2018-09-01T23:11:12.309Z,102880.80
2018-09-01T23:13:40.654Z,102882.59
2018-09-01T23:16:08.965Z,102885.48
2018-09-01T23:18:37.313Z,102891.24
2018-09-01T23:21:06.666Z,102887.30
2018-09-01T23:23:35.423Z,102887.16
2018-09-01T23:26:03.721Z,102887.25
2018-09-01T23:28:32.086Z,102886.91
2018-09-01T23:31:00.397Z,102886.66
2018-09-01T23:33:28.681Z,102885.45
2018-09-01T23:35:57.117Z,102883.75
2018-09-01T23:38:25.814Z,102887.54
2018-09-01T23:40:54.146Z,102893.08
2018-09-01T23:43:22.433Z,102887.66
2018-09-01T23:45:50.859Z,102894.64
2018-09-01T23:48:19.275Z,102884.51
2018-09-01T23:50:47.581Z,102884.15
2018-09-01T23:53:16.866Z,102879.40
2018-09-01T23:55:45.176Z,102880.05
2018-09-01T23:58:13.450Z,102879.89
